Time;durP1;ratioP1;P1;durP2;ratioP2;P2;SDS_P1;SDS_P2;PMS_P1;PMS_P2;Temp;Humidity;BMP_temperature;BMP_pressure;BME280_temperature;BME280_humidity;BME280_pressure;Samples;Min_cycle;Max_cycle;Signal;HPM_P1;HPM_P2
2021/07/01 00:00:13;;;;;;;15.68;7.72;;;;;;;15.44;67.45;101359.34;4963711;28;20030;-84
2021/07/01 00:02:39;;;;;;;15.20;7.93;;;;;;;15.43;67.37;101360.34;4949976;28;20029;-84
2021/07/01 00:05:06;;;;;;;22.50;8.30;;;;;;;15.33;67.44;101353.38;4950838;28;20032;-82
2021/07/01 00:07:32;;;;;;;12.07;7.13;;;;;;;15.26;68.07;101365.19;4959086;28;20560;-84
2021/07/01 00:09:57;;;;;;;13.57;7.30;;;;;;;15.19;68.42;101365.13;4949720;28;20027;-83
2021/07/01 00:12:23;;;;;;;13.18;7.32;;;;;;;15.17;68.82;101372.59;4965260;28;20491;-84
2021/07/01 00:14:49;;;;;;;14.30;6.97;;;;;;;15.01;68.74;101351.16;4967542;28;20037;-85
2021/07/01 00:17:14;;;;;;;16.25;8.25;;;;;;;15.03;69.26;101370.75;4967443;28;20026;-84
2021/07/01 00:19:40;;;;;;;14.65;8.88;;;;;;;14.86;68.71;101346.59;4963172;28;20472;-82
2021/07/01 00:22:05;;;;;;;15.20;7.80;;;;;;;14.98;69.13;101375.88;4949504;28;20026;-86
2021/07/01 00:24:30;;;;;;;16.23;8.23;;;;;;;14.84;69.01;101362.19;4970282;28;20037;-84
2021/07/01 00:26:56;;;;;;;19.95;9.27;;;;;;;14.91;68.94;101367.69;4951990;28;20125;-84
2021/07/01 00:29:22;;;;;;;15.73;7.35;;;;;;;14.87;68.91;101380.78;4960525;28;20027;-84
2021/07/01 00:31:47;;;;;;;13.27;7.75;;;;;;;14.72;68.62;101358.31;4955620;28;20133;-85
2021/07/01 00:34:13;;;;;;;14.23;7.60;;;;;;;14.82;69.40;101374.22;4965796;28;20026;-84
2021/07/01 00:36:38;;;;;;;17.42;7.90;;;;;;;14.75;68.83;101366.03;4951009;28;20030;-85
2021/07/01 00:39:05;;;;;;;14.63;7.10;;;;;;;14.75;68.26;101368.75;4964088;28;20026;-84
2021/07/01 00:41:30;;;;;;;17.20;7.53;;;;;;;14.51;68.76;101334.69;4963679;28;20483;-84
2021/07/01 00:43:56;;;;;;;13.73;7.00;;;;;;;14.59;69.10;101358.13;4955836;28;20038;-84
2021/07/01 00:46:21;;;;;;;15.60;7.40;;;;;;;14.51;68.85;101361.75;4960539;28;20026;-85
2021/07/01 00:48:47;;;;;;;15.93;7.57;;;;;;;14.25;68.99;101345.97;4963676;28;20057;-85
2021/07/01 00:51:12;;;;;;;13.82;7.40;;;;;;;14.29;69.29;101367.06;4953179;28;20032;-84
2021/07/01 00:53:38;;;;;;;15.63;8.05;;;;;;;14.15;69.89;101367.03;4962740;28;20593;-84
2021/07/01 00:56:05;;;;;;;12.45;7.07;;;;;;;13.78;70.01;101330.88;4966761;28;20033;-84
2021/07/01 00:58:32;;;;;;;13.77;7.97;;;;;;;13.72;70.55;101320.81;4966365;28;20109;-84
2021/07/01 01:01:05;;;;;;;14.02;7.15;;;;;;;13.98;70.61;101369.88;4979692;28;20029;-84
2021/07/01 01:03:32;;;;;;;12.70;7.15;;;;;;;13.95;70.24;101362.16;4963378;28;20029;-85
2021/07/01 01:05:57;;;;;;;13.77;7.22;;;;;;;14.00;71.13;101361.59;4951535;28;20030;-85
2021/07/01 01:08:23;;;;;;;16.02;7.45;;;;;;;14.03;71.41;101348.56;4965859;28;20085;-85
2021/07/01 01:10:49;;;;;;;16.67;8.23;;;;;;;14.17;71.10;101351.47;4964814;28;20034;-84
2021/07/01 01:13:25;;;;;;;16.77;7.90;;;;;;;14.34;71.29;101354.81;4965901;28;20022;-85
2021/07/01 01:15:59;;;;;;;21.17;8.40;;;;;;;14.47;70.34;101350.47;4968033;28;20034;-84
2021/07/01 01:18:24;;;;;;;17.35;7.93;;;;;;;14.30;70.24;101328.16;4966312;28;20031;-84
2021/07/01 01:20:51;;;;;;;16.85;7.75;;;;;;;14.41;69.71;101334.94;4983992;28;20052;-85
2021/07/01 01:23:16;;;;;;;14.43;6.93;;;;;;;14.44;71.25;101345.41;4947698;28;20037;-84
2021/07/01 01:25:44;;;;;;;13.82;7.50;;;;;;;14.34;71.38;101347.53;4976472;28;20026;-86
2021/07/01 01:28:09;;;;;;;18.50;8.93;;;;;;;14.18;71.03;101323.38;4967685;28;20042;-85
2021/07/01 01:30:38;;;;;;;14.93;7.25;;;;;;;14.38;71.46;101353.44;4953447;28;20031;-84
2021/07/01 01:33:05;;;;;;;13.23;7.05;;;;;;;14.34;71.16;101358.34;4973424;28;20076;-84
2021/07/01 01:35:31;;;;;;;15.25;7.28;;;;;;;14.06;71.30;101325.72;4955039;28;20044;-85
2021/07/01 01:37:56;;;;;;;15.75;7.70;;;;;;;14.35;72.01;101359.22;4955350;28;20030;-85
2021/07/01 01:40:22;;;;;;;15.02;7.55;;;;;;;14.34;71.83;101344.00;4976712;28;20026;-85
2021/07/01 01:42:47;;;;;;;13.60;7.80;;;;;;;14.43;70.98;101354.56;4972765;28;20064;-84
2021/07/01 01:45:13;;;;;;;18.40;8.18;;;;;;;14.38;71.43;101356.97;4958259;28;20035;-83
2021/07/01 01:47:45;;;;;;;14.68;7.68;;;;;;;14.16;71.75;101353.31;4959394;28;20089;-84
2021/07/01 01:50:11;;;;;;;15.52;7.75;;;;;;;14.01;72.51;101347.06;4954559;28;20034;-84
2021/07/01 01:52:36;;;;;;;15.15;7.80;;;;;;;14.15;72.31;101356.22;4975345;28;20033;-84
2021/07/01 01:55:02;;;;;;;20.00;7.85;;;;;;;14.13;72.19;101355.53;4947403;28;20027;-84
2021/07/01 01:57:27;;;;;;;19.85;7.90;;;;;;;14.24;71.69;101353.25;4964223;28;20026;-83
2021/07/01 01:59:53;;;;;;;15.90;6.97;;;;;;;14.25;72.53;101356.78;4982511;28;20018;-83
2021/07/01 02:02:19;;;;;;;13.75;7.88;;;;;;;14.20;71.55;101343.81;4967785;28;20034;-83
2021/07/01 02:04:44;;;;;;;17.02;8.40;;;;;;;14.23;71.69;101356.13;4981917;28;20109;-83
2021/07/01 02:07:10;;;;;;;19.70;9.23;;;;;;;14.12;72.28;101340.34;4965615;28;20030;-82
2021/07/01 02:09:35;;;;;;;17.58;8.85;;;;;;;14.12;72.87;101340.34;4967760;28;20029;-86
2021/07/01 02:12:01;;;;;;;19.58;9.15;;;;;;;14.11;72.83;101334.13;4967442;28;20031;-82
2021/07/01 02:14:27;;;;;;;16.10;8.63;;;;;;;14.06;72.92;101356.28;4967879;28;20088;-84
2021/07/01 02:16:53;;;;;;;14.88;8.73;;;;;;;13.83;73.12;101325.75;4967458;28;20057;-85
2021/07/01 02:19:18;;;;;;;20.20;9.10;;;;;;;13.99;72.80;101347.22;4962847;28;20046;-84
2021/07/01 02:21:44;;;;;;;17.08;8.07;;;;;;;14.00;72.71;101332.69;4963469;28;20030;-84
2021/07/01 02:24:09;;;;;;;16.88;9.18;;;;;;;14.05;72.46;101341.09;4953121;28;20564;-82
2021/07/01 02:26:35;;;;;;;17.30;8.98;;;;;;;13.99;73.18;101347.22;4951467;28;20492;-84
2021/07/01 02:29:00;;;;;;;14.48;8.00;;;;;;;13.98;72.80;101344.72;4974875;28;20065;-82
2021/07/01 02:31:26;;;;;;;16.27;8.65;;;;;;;14.03;73.71;101347.72;4980646;28;20022;-83
2021/07/01 02:33:51;;;;;;;17.90;8.80;;;;;;;14.00;73.53;101353.50;4985940;28;20519;-84
2021/07/01 02:36:16;;;;;;;18.88;9.57;;;;;;;13.94;73.38;101355.03;4964776;28;20030;-85
2021/07/01 02:38:42;;;;;;;17.40;9.30;;;;;;;13.56;73.64;101324.50;4953353;28;20402;-84
2021/07/01 02:41:07;;;;;;;17.20;8.52;;;;;;;13.64;75.46;101357.69;4964668;28;20027;-84
2021/07/01 02:43:33;;;;;;;16.17;8.85;;;;;;;13.54;75.62;101354.38;4954201;28;20078;-82
2021/07/01 02:45:58;;;;;;;15.25;8.07;;;;;;;13.51;74.98;101341.22;4967852;28;20122;-83
2021/07/01 02:48:24;;;;;;;17.08;8.50;;;;;;;13.57;75.41;101358.56;4965437;28;20517;-83
2021/07/01 02:50:49;;;;;;;19.63;8.93;;;;;;;13.50;75.13;101357.63;4964505;28;20041;-84
2021/07/01 02:53:15;;;;;;;21.42;9.70;;;;;;;13.37;75.93;101358.22;4965598;28;20113;-83
2021/07/01 02:55:40;;;;;;;19.30;9.10;;;;;;;13.22;76.90;101343.78;4966239;28;20076;-84
2021/07/01 02:58:06;;;;;;;18.67;8.90;;;;;;;13.05;77.22;101326.84;4967371;28;20030;-84
2021/07/01 03:00:31;;;;;;;20.00;8.77;;;;;;;13.09;77.30;101333.56;4979834;28;20035;-85
2021/07/01 03:02:57;;;;;;;17.85;9.00;;;;;;;13.17;77.31;101331.66;4957339;28;20446;-86
2021/07/01 03:05:22;;;;;;;18.73;8.65;;;;;;;13.34;76.66;101350.50;4964447;28;20030;-84
2021/07/01 03:07:48;;;;;;;17.80;9.35;;;;;;;13.36;76.10;101352.00;4968665;28;20023;-85
2021/07/01 03:10:13;;;;;;;18.67;8.68;;;;;;;13.27;76.36;101336.84;4966131;28;20038;-84
2021/07/01 03:12:39;;;;;;;17.40;8.98;;;;;;;13.27;76.06;101349.53;4953282;28;20039;-85
2021/07/01 03:15:05;;;;;;;20.02;8.15;;;;;;;13.16;76.42;101340.78;4964730;28;20101;-86
2021/07/01 03:17:30;;;;;;;19.35;8.43;;;;;;;13.12;76.29;101341.31;4964814;28;20034;-85
2021/07/01 03:19:56;;;;;;;18.80;8.98;;;;;;;13.18;75.05;101348.72;4950707;28;20030;-84
2021/07/01 03:22:21;;;;;;;17.55;7.47;;;;;;;13.12;74.80;101342.13;4967441;28;20084;-84
2021/07/01 03:24:47;;;;;;;15.45;7.22;;;;;;;13.09;74.59;101349.75;4949420;28;20495;-83
2021/07/01 03:27:12;;;;;;;15.68;7.68;;;;;;;12.91;74.25;101328.44;4968520;28;20117;-84
2021/07/01 03:29:38;;;;;;;16.27;8.13;;;;;;;12.85;74.78;101345.34;4952448;28;20099;-84
2021/07/01 03:32:04;;;;;;;15.23;7.47;;;;;;;12.74;75.80;101350.09;4965516;28;20093;-86
2021/07/01 03:34:29;;;;;;;15.75;7.85;;;;;;;12.66;75.75;101333.97;4984477;28;20107;-84
2021/07/01 03:36:54;;;;;;;15.38;7.20;;;;;;;12.54;75.95;101319.16;4952107;28;20037;-85
2021/07/01 03:39:20;;;;;;;16.75;7.78;;;;;;;12.51;75.56;101327.59;4965039;28;20026;-84
2021/07/01 03:41:45;;;;;;;17.17;7.88;;;;;;;12.51;75.77;101341.09;4973549;28;20034;-85
2021/07/01 03:44:13;;;;;;;15.43;7.53;;;;;;;12.46;75.95;101347.03;4963089;28;20696;-87
2021/07/01 03:46:38;;;;;;;14.65;7.07;;;;;;;12.31;76.25;101346.06;4954188;28;20129;-86
2021/07/01 03:49:04;;;;;;;15.18;7.80;;;;;;;12.19;76.39;101326.69;4951314;28;20110;-84
2021/07/01 03:51:29;;;;;;;16.27;8.30;;;;;;;12.32;76.82;101334.25;4949979;28;20403;-87
2021/07/01 03:53:55;;;;;;;15.10;6.70;;;;;;;12.34;76.21;101340.31;4981205;28;20090;-84
2021/07/01 03:56:20;;;;;;;13.23;6.63;;;;;;;12.32;76.31;101339.66;4970025;28;20038;-84
2021/07/01 03:58:46;;;;;;;15.98;7.40;;;;;;;12.22;76.38;101339.84;4953938;28;20080;-84
2021/07/01 04:01:11;;;;;;;18.77;8.80;;;;;;;12.20;75.95;101331.09;4953838;28;20061;-86
2021/07/01 04:03:37;;;;;;;19.80;8.63;;;;;;;12.29;76.18;101342.69;4953491;28;20029;-84
2021/07/01 04:06:03;;;;;;;18.60;7.40;;;;;;;12.28;76.46;101339.16;4947807;28;20030;-84
2021/07/01 04:08:28;;;;;;;15.18;7.97;;;;;;;12.10;75.94;101306.19;4969092;28;20056;-86
2021/07/01 04:10:54;;;;;;;15.25;7.40;;;;;;;12.07;76.24;101309.22;4951452;28;20026;-88
2021/07/01 04:13:19;;;;;;;14.98;7.70;;;;;;;11.94;75.79;101279.28;4984921;28;20057;-86
2021/07/01 04:15:45;;;;;;;15.52;6.38;;;;;;;12.28;75.72;101325.69;4962846;28;20034;-87
2021/07/01 04:18:14;;;;;;;15.65;7.28;;;;;;;12.29;75.74;101330.03;4951526;28;20026;-86
2021/07/01 04:20:40;;;;;;;14.65;6.97;;;;;;;12.29;75.09;101321.97;4966680;28;20499;-87
2021/07/01 04:23:06;;;;;;;12.77;6.40;;;;;;;12.27;74.96;101305.09;4951288;28;20026;-86
2021/07/01 04:25:32;;;;;;;15.27;6.93;;;;;;;12.22;74.15;101299.38;4964833;28;20030;-85
2021/07/01 04:27:58;;;;;;;14.00;6.50;;;;;;;12.24;74.45;101312.72;4969993;28;20042;-86
2021/07/01 04:30:24;;;;;;;13.63;6.20;;;;;;;12.24;74.14;101324.31;4979047;28;20052;-87
2021/07/01 04:32:49;;;;;;;12.95;6.78;;;;;;;12.06;75.03;101291.34;4968392;28;20026;-86
2021/07/01 04:35:14;;;;;;;14.60;7.40;;;;;;;12.19;74.26;101326.69;4951600;28;20037;-86
2021/07/01 04:37:40;;;;;;;13.57;6.97;;;;;;;12.22;74.65;101328.22;4952716;28;20061;-88
2021/07/01 04:40:09;;;;;;;13.65;6.50;;;;;;;12.20;74.37;101330.22;4955185;28;20026;-88
2021/07/01 04:42:35;;;;;;;12.80;6.55;;;;;;;12.06;74.49;101312.91;4968284;28;20022;-87
2021/07/01 04:45:01;;;;;;;13.00;6.53;;;;;;;12.03;74.48;101310.56;4968900;28;20109;-85
2021/07/01 04:47:27;;;;;;;12.82;6.45;;;;;;;12.09;74.26;101317.97;4950083;28;20166;-86
2021/07/01 04:49:52;;;;;;;10.32;5.68;;;;;;;12.14;74.33;101323.69;4954383;28;20031;-86
2021/07/01 04:52:17;;;;;;;9.60;5.75;;;;;;;12.05;73.56;101314.78;4955169;28;20023;-84
2021/07/01 04:54:43;;;;;;;10.18;4.85;;;;;;;12.08;74.67;101321.69;4971591;28;20054;-85
2021/07/01 04:57:08;;;;;;;8.70;5.10;;;;;;;11.94;74.68;101306.22;4965500;28;20106;-86
2021/07/01 04:59:34;;;;;;;11.52;5.28;;;;;;;11.93;74.10;101297.28;4956158;28;20022;-84
2021/07/01 05:01:59;;;;;;;14.85;7.25;;;;;;;12.19;74.13;101332.09;4952815;28;20038;-85
2021/07/01 05:04:25;;;;;;;17.55;8.65;;;;;;;12.05;74.94;101303.16;4943098;28;20030;-85
2021/07/01 05:06:50;;;;;;;17.52;7.75;;;;;;;12.18;75.68;101332.28;4962393;28;20075;-86
2021/07/01 05:09:16;;;;;;;16.50;7.38;;;;;;;12.13;75.77;101332.78;4963255;28;20029;-87
2021/07/01 05:11:41;;;;;;;16.25;7.90;;;;;;;12.04;77.08;101340.06;4974130;28;20030;-87
2021/07/01 05:14:07;;;;;;;22.92;8.82;;;;;;;11.54;77.27;101291.75;4978863;28;20033;-86
2021/07/01 05:16:33;;;;;;;24.63;9.80;;;;;;;11.61;78.91;101322.38;4994665;28;20053;-86
2021/07/01 05:19:00;;;;;;;36.30;9.52;;;;;;;11.67;79.45;101337.88;4965935;28;20034;-86
2021/07/01 05:21:26;;;;;;;28.13;9.88;;;;;;;11.69;80.32;101341.22;4996933;28;20058;-87
2021/07/01 05:23:52;;;;;;;29.00;9.00;;;;;;;11.77;80.17;101346.59;4985435;28;20038;-86
2021/07/01 05:26:18;;;;;;;25.13;8.45;;;;;;;11.74;79.89;101328.09;4979775;28;20554;-86
2021/07/01 05:28:44;;;;;;;31.70;9.43;;;;;;;11.81;80.10;101325.56;4993437;28;20050;-86
2021/07/01 05:31:10;;;;;;;29.15;9.18;;;;;;;12.01;80.13;101353.88;4991555;28;20039;-85
2021/07/01 05:33:36;;;;;;;23.77;8.38;;;;;;;11.97;80.51;101344.44;4987915;28;20027;-87
2021/07/01 05:36:01;;;;;;;35.20;8.27;;;;;;;11.99;80.91;101342.44;4974915;28;20035;-86
2021/07/01 05:38:27;;;;;;;32.03;9.05;;;;;;;11.93;81.19;101323.38;4962980;28;20029;-86
2021/07/01 05:40:52;;;;;;;34.13;8.77;;;;;;;11.91;80.94;101301.16;4972282;28;20029;-85
2021/07/01 05:43:18;;;;;;;37.30;8.35;;;;;;;11.99;81.15;101303.84;4978429;28;20027;-86
2021/07/01 05:45:43;;;;;;;26.10;9.00;;;;;;;12.15;81.91;101325.38;4960095;28;20063;-85
2021/07/01 05:48:10;;;;;;;29.00;8.45;;;;;;;12.37;81.90;101355.31;4958174;28;20026;-86
2021/07/01 05:50:42;;;;;;;26.48;7.95;;;;;;;12.34;82.48;101334.09;4964044;28;20034;-86
2021/07/01 05:53:10;;;;;;;25.42;8.63;;;;;;;12.41;82.18;101329.66;4991124;28;20066;-86
2021/07/01 05:55:35;;;;;;;19.13;8.20;;;;;;;12.61;81.69;101339.03;4977665;28;20133;-86
2021/07/01 05:58:02;;;;;;;20.33;8.50;;;;;;;12.80;81.73;101361.22;4997547;28;20384;-86
2021/07/01 06:00:29;;;;;;;19.55;8.20;;;;;;;12.71;81.81;101326.19;4972603;28;20022;-85
2021/07/01 06:02:55;;;;;;;26.50;9.30;;;;;;;12.75;81.70;101316.72;4975074;28;20030;-85
2021/07/01 06:05:20;;;;;;;27.00;9.15;;;;;;;12.88;81.59;101342.28;4979284;28;20037;-85
2021/07/01 06:07:48;;;;;;;21.33;8.63;;;;;;;13.04;81.88;101362.94;5009261;28;20042;-86
2021/07/01 06:10:17;;;;;;;25.73;10.13;;;;;;;13.14;81.96;101360.88;4973002;28;20081;-86
2021/07/01 06:12:42;;;;;;;25.63;10.77;;;;;;;13.24;81.96;101356.09;4977258;28;20112;-87
2021/07/01 06:15:08;;;;;;;25.13;9.35;;;;;;;13.32;81.43;101355.22;4977276;28;20030;-85
2021/07/01 06:17:34;;;;;;;23.55;8.85;;;;;;;13.33;82.00;101356.91;4976199;28;20057;-86
2021/07/01 06:20:05;;;;;;;25.23;10.32;;;;;;;13.33;81.89;101344.22;4994359;28;20038;-86
2021/07/01 06:22:31;;;;;;;26.63;9.68;;;;;;;13.48;81.88;101371.31;4969531;28;20026;-86
2021/07/01 06:24:57;;;;;;;27.98;10.07;;;;;;;13.39;81.86;101367.00;4978095;28;20117;-86
2021/07/01 06:27:36;;;;;;;26.27;9.32;;;;;;;13.49;82.64;101378.38;4982321;28;20086;-86
2021/07/01 06:30:09;;;;;;;22.63;9.05;;;;;;;13.51;82.09;101373.66;4975257;28;20050;-86
2021/07/01 06:32:41;;;;;;;26.13;10.37;;;;;;;13.49;82.42;101378.38;4979602;28;20040;-86
2021/07/01 06:35:07;;;;;;;25.75;9.40;;;;;;;13.39;82.32;101367.00;4969289;28;20273;-86
2021/07/01 06:37:33;;;;;;;23.35;10.18;;;;;;;13.40;82.53;101363.28;4955657;28;20030;-86
2021/07/01 06:40:00;;;;;;;20.38;8.48;;;;;;;13.44;83.17;101379.94;4967250;28;20408;-86
2021/07/01 06:42:26;;;;;;;23.65;10.18;;;;;;;13.39;83.12;101380.50;4980512;28;20395;-84
2021/07/01 06:44:52;;;;;;;21.00;9.13;;;;;;;13.49;82.79;101388.38;4990217;28;20025;-85
2021/07/01 06:47:17;;;;;;;22.00;8.65;;;;;;;13.39;83.08;101375.94;4979730;28;20041;-85
2021/07/01 06:49:43;;;;;;;25.13;10.63;;;;;;;13.51;83.14;101381.75;4957701;28;20050;-85
2021/07/01 06:52:12;;;;;;;19.25;7.72;;;;;;;13.66;83.78;101399.91;4973855;28;20121;-86
2021/07/01 06:54:40;;;;;;;24.63;9.40;;;;;;;13.61;82.66;101387.75;4978491;28;20026;-86
2021/07/01 06:57:05;;;;;;;21.88;8.60;;;;;;;13.66;82.40;101389.09;4962504;28;20039;-86
2021/07/01 06:59:31;;;;;;;19.83;8.65;;;;;;;13.68;82.34;101387.03;4982034;28;20126;-86
2021/07/01 07:01:58;;;;;;;27.83;10.27;;;;;;;13.75;82.55;101393.41;4978591;28;20117;-85
2021/07/01 07:04:24;;;;;;;23.00;9.32;;;;;;;13.73;82.83;101392.75;4976238;28;20034;-85
2021/07/01 07:06:49;;;;;;;26.10;9.82;;;;;;;13.73;82.76;101390.88;4979746;28;20023;-86
2021/07/01 07:09:16;;;;;;;21.27;9.73;;;;;;;13.75;82.31;101398.81;4969476;28;20088;-86
2021/07/01 07:11:42;;;;;;;24.42;9.88;;;;;;;13.68;82.80;101387.03;4975898;28;20072;-86
2021/07/01 07:14:08;;;;;;;25.83;11.10;;;;;;;13.72;82.77;101391.91;4982082;28;20033;-87
2021/07/01 07:16:38;;;;;;;23.58;10.05;;;;;;;13.57;82.60;101356.72;4952364;28;20041;-86
2021/07/01 07:19:07;;;;;;;24.90;9.80;;;;;;;13.53;82.98;101354.56;4991553;28;20065;-86
2021/07/01 07:21:37;;;;;;;26.15;10.68;;;;;;;13.79;83.56;101397.44;4963995;28;20019;-84
2021/07/01 07:24:03;;;;;;;27.15;10.85;;;;;;;13.78;83.44;101393.03;4977009;28;20026;-85
2021/07/01 07:26:29;;;;;;;41.47;13.93;;;;;;;13.80;83.08;101383.72;4994616;28;20036;-86
2021/07/01 07:28:55;;;;;;;28.10;10.02;;;;;;;13.78;83.27;101393.03;4989805;28;20066;-86
2021/07/01 07:31:27;;;;;;;23.77;10.10;;;;;;;13.51;83.91;101359.31;4995687;28;20491;-85
2021/07/01 07:33:54;;;;;;;25.83;11.05;;;;;;;13.78;83.69;101388.47;4979821;28;20034;-87
2021/07/01 07:36:23;;;;;;;26.77;11.05;;;;;;;13.80;83.81;101401.81;4964438;28;20121;-87
2021/07/01 07:38:51;;;;;;;29.75;11.63;;;;;;;13.84;83.86;101401.28;4960980;28;20026;-84
2021/07/01 07:41:18;;;;;;;27.67;10.30;;;;;;;13.79;83.94;101394.75;4958477;28;20046;-86
2021/07/01 07:43:59;;;;;;;;;;;;;;;;;;;;;
2021/07/01 07:46:26;;;;;;;35.42;12.93;;;;;;;13.84;83.34;101393.16;4972484;28;20034;-86
2021/07/01 07:48:53;;;;;;;35.03;12.10;;;;;;;13.77;83.37;101386.78;4995277;28;20030;-86
2021/07/01 07:51:23;;;;;;;38.92;14.73;;;;;;;13.70;83.34;101363.38;4958402;28;20541;-86
2021/07/01 07:53:55;;;;;;;40.97;14.02;;;;;;;13.84;83.00;101393.16;4988971;28;20069;-85
2021/07/01 07:56:27;;;;;;;38.30;14.27;;;;;;;13.91;83.22;101404.06;4972246;28;20026;-86
2021/07/01 07:58:55;;;;;;;40.08;13.15;;;;;;;13.91;83.28;101401.38;4960524;28;20023;-86
2021/07/01 08:01:21;;;;;;;41.38;15.70;;;;;;;13.67;82.94;101352.94;4988633;28;20529;-86
2021/07/01 08:03:52;;;;;;;35.97;12.57;;;;;;;13.90;83.35;101393.47;4955375;28;20063;-86
2021/07/01 08:06:18;;;;;;;39.38;13.68;;;;;;;13.89;84.04;101395.31;4988346;28;20022;-87
2021/07/01 08:08:44;;;;;;;36.63;13.00;;;;;;;13.87;83.82;101367.63;4957711;28;20025;-86
2021/07/01 08:11:11;;;;;;;36.05;12.52;;;;;;;14.04;83.21;101368.31;4987455;28;20022;-87
2021/07/01 08:13:38;;;;;;;33.47;12.43;;;;;;;14.22;82.97;101395.03;4971830;28;20036;-85
2021/07/01 08:16:04;;;;;;;33.17;12.00;;;;;;;14.17;83.45;101386.63;4971626;28;20034;-86
2021/07/01 08:18:39;;;;;;;34.47;14.18;;;;;;;14.34;83.00;101392.69;4986620;28;20117;-87
2021/07/01 08:21:10;;;;;;;35.55;13.05;;;;;;;14.50;82.20;101397.91;4964136;28;20026;-86
2021/07/01 08:23:36;;;;;;;33.38;12.38;;;;;;;14.60;81.82;101403.09;4980785;28;20022;-86
2021/07/01 08:26:03;;;;;;;30.95;12.98;;;;;;;14.56;81.35;101396.41;4962429;28;20054;-86
2021/07/01 08:28:29;;;;;;;34.20;12.00;;;;;;;14.51;81.77;101400.47;4962761;28;20030;-87
2021/07/01 08:31:03;;;;;;;38.22;12.70;;;;;;;14.47;82.12;101401.88;4982819;28;20049;-86
2021/07/01 08:33:34;;;;;;;35.70;13.38;;;;;;;14.54;82.51;101398.44;4961804;28;20407;-85
2021/07/01 08:36:00;;;;;;;44.10;15.07;;;;;;;14.56;81.73;101394.53;4962838;28;20125;-87
2021/07/01 08:38:26;;;;;;;37.13;13.63;;;;;;;14.42;81.40;101396.16;4979146;28;20053;-87
2021/07/01 08:40:57;;;;;;;37.35;13.40;;;;;;;14.40;82.04;101395.50;4994024;28;20434;-87
2021/07/01 08:43:24;;;;;;;37.60;14.23;;;;;;;14.27;82.77;101376.38;4978956;28;20033;-86
2021/07/01 08:46:14;;;;;;;38.22;13.45;;;;;;;14.44;83.07;101398.69;4965839;28;20026;-86
2021/07/01 08:49:04;;;;;;;38.40;14.48;;;;;;;14.55;82.29;101403.66;4954824;28;20492;-85
2021/07/01 08:51:36;;;;;;;38.83;13.35;;;;;;;14.61;81.93;101402.09;4954665;28;20035;-86
2021/07/01 08:54:13;;;;;;;29.88;12.10;;;;;;;14.76;81.83;101402.91;4940804;28;20077;-85
2021/07/01 08:56:39;;;;;;;30.10;12.32;;;;;;;14.90;81.42;101396.66;4957781;28;20030;-86
2021/07/01 08:59:06;;;;;;;34.55;13.82;;;;;;;15.10;80.78;101393.34;4958348;28;20463;-86
2021/07/01 09:01:32;;;;;;;33.22;12.52;;;;;;;15.04;79.99;101388.69;4957593;28;20030;-86
2021/07/01 09:03:58;;;;;;;32.53;13.15;;;;;;;15.12;80.27;101394.81;4990251;28;20033;-86
2021/07/01 09:06:26;;;;;;;38.45;13.70;;;;;;;15.16;79.46;101397.97;4989681;28;20113;-86
2021/07/01 09:08:53;;;;;;;37.03;14.43;;;;;;;15.16;79.66;101398.84;4973483;28;20023;-86
2021/07/01 09:11:22;;;;;;;32.65;13.27;;;;;;;15.20;79.07;101396.59;4961816;28;20023;-86
2021/07/01 09:13:50;;;;;;;35.00;14.38;;;;;;;15.10;78.60;101380.63;4957984;28;20018;-86
2021/07/01 09:16:16;;;;;;;37.67;15.57;;;;;;;14.99;79.00;101393.84;4973756;28;20050;-88
2021/07/01 09:18:44;;;;;;;35.50;14.27;;;;;;;14.86;79.60;101376.38;4973412;28;20023;-87
2021/07/01 09:21:10;;;;;;;42.60;16.35;;;;;;;14.83;79.55;101376.75;4973926;28;20550;-85
2021/07/01 09:23:36;;;;;;;38.22;14.70;;;;;;;14.96;79.72;101403.19;4973830;28;20479;-85
2021/07/01 09:26:03;;;;;;;36.42;14.23;;;;;;;15.02;80.00;101407.81;4973808;28;20041;-86
2021/07/01 09:28:29;;;;;;;27.02;12.75;;;;;;;15.10;79.78;101409.59;4973621;28;20022;-84
2021/07/01 09:30:56;;;;;;;30.92;13.65;;;;;;;15.24;79.45;101407.88;4972958;28;20030;-86
2021/07/01 09:33:21;;;;;;;44.85;16.67;;;;;;;15.19;78.95;101394.94;4981681;28;20026;-85
2021/07/01 09:35:47;;;;;;;38.60;15.32;;;;;;;15.11;79.30;101395.88;4969378;28;20027;-84
2021/07/01 09:38:14;;;;;;;30.90;14.10;;;;;;;15.21;79.26;101405.56;4956348;28;20026;-84
2021/07/01 09:40:39;;;;;;;34.10;14.15;;;;;;;15.09;79.00;101388.97;4976919;28;20030;-84
2021/07/01 09:43:07;;;;;;;37.10;13.88;;;;;;;15.11;79.38;101412.13;4993102;28;20094;-85
2021/07/01 09:45:35;;;;;;;37.40;14.98;;;;;;;15.09;79.34;101403.34;4991653;28;20076;-85
2021/07/01 09:48:07;;;;;;;35.83;13.73;;;;;;;15.14;79.99;101410.91;4960010;28;20026;-85
2021/07/01 09:50:35;;;;;;;74.15;17.05;;;;;;;15.14;79.50;101400.06;4946109;28;20038;-84
2021/07/01 09:53:03;;;;;;;35.75;14.45;;;;;;;15.12;79.02;101407.53;4973138;28;20039;-84
2021/07/01 09:55:30;;;;;;;36.55;14.75;;;;;;;15.03;79.57;101403.25;4940581;28;20455;-84
2021/07/01 09:57:59;;;;;;;33.65;13.57;;;;;;;15.18;79.19;101406.78;4953795;28;20039;-84
2021/07/01 10:00:28;;;;;;;35.25;16.05;;;;;;;15.24;78.74;101411.44;4976095;28;20026;-84
2021/07/01 10:03:05;;;;;;;31.80;13.88;;;;;;;15.34;78.86;101406.53;4970392;28;20022;-86
2021/07/01 10:05:31;;;;;;;33.20;15.23;;;;;;;15.41;77.93;101400.38;4975336;28;20407;-83
2021/07/01 10:07:56;;;;;;;34.03;13.27;;;;;;;15.39;77.71;101387.84;4991089;28;20531;-84
2021/07/01 10:10:22;;;;;;;37.60;15.65;;;;;;;15.54;76.95;101398.63;4979375;28;20030;-84
2021/07/01 10:12:57;;;;;;;32.97;13.05;;;;;;;15.55;76.51;101402.19;4992914;28;20026;-85
2021/07/01 10:15:34;;;;;;;29.42;12.23;;;;;;;15.70;76.43;101411.13;4976064;28;20030;-84
2021/07/01 10:18:11;;;;;;;34.38;13.07;;;;;;;15.85;76.94;101412.91;4973191;28;20037;-85
2021/07/01 10:20:38;;;;;;;30.88;13.25;;;;;;;15.80;76.21;101379.09;4985846;28;20076;-83
2021/07/01 10:23:17;;;;;;;36.50;16.90;;;;;;;16.03;74.94;101418.72;4993881;28;20022;-85
2021/07/01 10:25:43;;;;;;;36.67;15.73;;;;;;;15.96;75.07;101409.69;4992981;28;20058;-85
2021/07/01 10:28:14;;;;;;;37.10;16.10;;;;;;;15.91;74.84;101418.41;4994125;28;20031;-84
2021/07/01 10:30:42;;;;;;;32.05;13.40;;;;;;;15.83;75.38;101413.97;4976534;28;20033;-85
2021/07/01 10:33:24;;;;;;;32.90;14.63;;;;;;;15.90;75.77;101413.16;4956476;28;20058;-85
2021/07/01 10:35:50;;;;;;;37.53;14.00;;;;;;;15.87;75.52;101406.25;4954550;28;20419;-85
2021/07/01 10:38:16;;;;;;;34.80;14.18;;;;;;;15.94;75.17;101414.47;4945727;28;20050;-85
2021/07/01 10:40:49;;;;;;;34.53;13.80;;;;;;;15.98;75.31;101402.19;4976525;28;20053;-85
2021/07/01 10:43:17;;;;;;;61.53;17.88;;;;;;;16.18;75.01;101407.78;4975795;28;20475;-84
2021/07/01 10:45:54;;;;;;;34.22;13.85;;;;;;;16.28;74.17;101397.44;4991540;28;20125;-85
2021/07/01 10:48:20;;;;;;;32.90;14.48;;;;;;;16.28;74.07;101397.44;4975826;28;20105;-85
2021/07/01 10:50:48;;;;;;;33.67;14.35;;;;;;;16.38;73.90;101408.78;4976553;28;20061;-85
2021/07/01 10:53:34;;;;;;;33.25;15.45;;;;;;;16.42;73.40;101418.19;4959020;28;20046;-84
2021/07/01 10:56:06;;;;;;;47.80;15.73;;;;;;;16.44;72.78;101407.97;4974731;28;20394;-85
2021/07/01 10:58:32;;;;;;;40.28;16.02;;;;;;;16.54;72.88;101413.06;4975105;28;20491;-86
2021/07/01 11:00:59;;;;;;;32.88;16.08;;;;;;;16.47;72.28;101407.56;4991611;28;20475;-85
2021/07/01 11:03:28;;;;;;;37.17;14.68;;;;;;;16.37;72.80;101401.66;4991194;28;20022;-84
2021/07/01 11:05:55;;;;;;;42.08;17.38;;;;;;;16.39;73.06;101412.31;4990470;28;20030;-85
2021/07/01 11:08:26;;;;;;;41.53;16.25;;;;;;;16.36;72.83;101410.00;4990696;28;20029;-84
2021/07/01 11:10:52;;;;;;;34.65;13.70;;;;;;;16.24;73.25;101406.97;4974573;28;20065;-84
2021/07/01 11:13:18;;;;;;;34.75;14.80;;;;;;;16.22;73.89;101409.91;4983133;28;20026;-86